Time;durP1;ratioP1;P1;durP2;ratioP2;P2;SDS_P1;SDS_P2;PMS_P1;PMS_P2;Temp;Humidity;BMP_temperature;BMP_pressure;BME280_temperature;BME280_humidity;BME280_pressure;Samples;Min_cycle;Max_cycle;Signal;HPM_P1;HPM_P2
2024/02/26 00:01:38;;;;;;;16.50;11.40;;;;;;;9.26;70.66;98293.49;105470;1253;109393;-79
2024/02/26 00:04:06;;;;;;;17.40;12.10;;;;;;;9.27;70.72;98290.84;105277;1253;96735;-76
2024/02/26 00:06:35;;;;;;;19.10;11.80;;;;;;;9.27;70.71;98289.24;105254;1263;108437;-79
2024/02/26 00:09:05;;;;;;;20.30;12.30;;;;;;;9.27;70.75;98286.42;105754;1253;96593;-74
2024/02/26 00:11:36;;;;;;;20.00;12.30;;;;;;;9.26;70.79;98286.31;105839;1253;96615;-78
2024/02/26 00:14:04;;;;;;;16.80;12.00;;;;;;;9.25;70.82;98294.48;105872;1253;109881;-79
2024/02/26 00:16:32;;;;;;;17.30;11.90;;;;;;;9.23;70.78;98305.75;105692;1253;96582;-79
2024/02/26 00:19:00;;;;;;;17.30;11.10;;;;;;;9.21;70.78;98312.79;105604;1254;107472;-80
2024/02/26 00:21:29;;;;;;;17.90;11.70;;;;;;;9.21;70.94;98319.89;105744;1254;97890;-79
2024/02/26 00:23:56;;;;;;;17.60;11.50;;;;;;;9.21;70.98;98322.20;105903;1250;96613;-79
2024/02/26 00:26:24;;;;;;;14.40;9.90;;;;;;;9.22;71.13;98315.05;105569;1248;110531;-79
2024/02/26 00:28:52;;;;;;;14.90;9.20;;;;;;;9.22;71.17;98313.97;105360;1262;96583;-82
2024/02/26 00:31:20;;;;;;;17.10;9.70;;;;;;;9.23;71.36;98314.42;105467;1254;108191;-78
2024/02/26 00:33:48;;;;;;;17.90;10.20;;;;;;;9.24;71.22;98320.56;105937;1254;96590;-80
2024/02/26 00:36:16;;;;;;;14.60;9.50;;;;;;;9.22;71.24;98322.80;106032;1254;96583;-75
2024/02/26 00:38:46;;;;;;;14.90;9.70;;;;;;;9.22;71.22;98317.49;105709;1251;109787;-82
2024/02/26 00:41:14;;;;;;;17.60;9.70;;;;;;;9.22;71.21;98318.58;105861;1253;97409;-80
2024/02/26 00:43:42;;;;;;;16.50;9.70;;;;;;;9.22;71.50;98314.02;105963;1254;106091;-79
2024/02/26 00:46:10;;;;;;;16.70;10.00;;;;;;;9.22;71.31;98309.40;105630;1253;98021;-78
2024/02/26 00:48:38;;;;;;;13.90;9.30;;;;;;;9.22;71.50;98304.76;105350;1253;96594;-79
2024/02/26 00:51:07;;;;;;;15.30;9.10;;;;;;;9.23;71.35;98301.58;105289;1254;109992;-76
2024/02/26 00:53:35;;;;;;;15.10;10.00;;;;;;;9.22;71.47;98301.29;105526;1254;97538;-82
2024/02/26 00:56:03;;;;;;;13.40;9.30;;;;;;;9.22;71.67;98304.46;105936;1254;107621;-80
2024/02/26 00:58:31;;;;;;;13.40;9.40;;;;;;;9.21;71.46;98298.51;105803;1254;96579;-79
2024/02/26 01:00:59;;;;;;;14.40;9.40;;;;;;;9.20;71.64;98302.30;105931;1254;96635;-79
2024/02/26 01:03:27;;;;;;;12.60;8.80;;;;;;;9.21;71.64;98300.66;106176;1253;109991;-77
2024/02/26 01:05:55;;;;;;;13.30;8.30;;;;;;;9.19;71.52;98300.27;105920;1253;96500;-79
2024/02/26 01:08:26;;;;;;;10.90;8.00;;;;;;;9.18;71.63;98302.64;105998;1254;107601;-79
2024/02/26 01:10:53;;;;;;;11.60;8.20;;;;;;;9.17;71.64;98299.33;105466;1256;97794;-79
2024/02/26 01:13:22;;;;;;;10.30;7.80;;;;;;;9.17;71.72;98294.05;105914;1252;96658;-77
2024/02/26 01:15:50;;;;;;;13.80;9.30;;;;;;;9.17;71.81;98291.96;105848;1263;108549;-79
2024/02/26 01:18:18;;;;;;;12.90;9.10;;;;;;;9.17;71.89;98291.59;105494;1262;97619;-77
2024/02/26 01:20:47;;;;;;;13.10;8.80;;;;;;;9.18;71.91;98289.06;105417;1261;108234;-79
2024/02/26 01:23:15;;;;;;;12.40;7.90;;;;;;;9.17;71.97;98289.61;105402;1253;97512;-79
2024/02/26 01:25:43;;;;;;;12.40;8.50;;;;;;;9.17;71.91;98282.52;105926;1251;96521;-80
2024/02/26 01:28:11;;;;;;;15.20;9.70;;;;;;;9.18;71.95;98281.60;105174;1262;107945;-77
2024/02/26 01:30:39;;;;;;;12.20;8.30;;;;;;;9.17;71.95;98274.25;105298;1254;97927;-76
2024/02/26 01:33:07;;;;;;;10.90;7.60;;;;;;;9.17;72.02;98265.25;105977;1253;108266;-80
2024/02/26 01:35:35;;;;;;;11.50;8.10;;;;;;;9.16;71.94;98260.92;105595;1253;96644;-79
2024/02/26 01:38:04;;;;;;;12.60;8.70;;;;;;;9.15;72.02;98255.50;105783;1254;96902;-79
2024/02/26 01:40:31;;;;;;;10.70;7.50;;;;;;;9.14;72.09;98261.09;105765;1251;109661;-78
2024/02/26 01:43:00;;;;;;;11.10;7.90;;;;;;;9.13;72.02;98259.21;105115;1254;96488;-79
2024/02/26 01:45:28;;;;;;;11.50;7.60;;;;;;;9.13;72.19;98261.84;105888;1254;108044;-78
2024/02/26 01:47:57;;;;;;;12.90;7.80;;;;;;;9.14;72.28;98259.84;105529;1254;96867;-80
2024/02/26 01:50:26;;;;;;;9.90;7.30;;;;;;;9.13;72.19;98258.16;105938;1253;97908;-76
2024/02/26 01:52:55;;;;;;;9.20;7.30;;;;;;;9.12;72.34;98260.30;105831;1254;109900;-79
2024/02/26 01:55:24;;;;;;;9.50;6.80;;;;;;;9.12;72.36;98261.76;105828;1248;96583;-80
2024/02/26 01:57:53;;;;;;;11.10;7.60;;;;;;;9.11;72.42;98263.58;105531;1253;109862;-78
2024/02/26 02:00:23;;;;;;;11.00;7.00;;;;;;;9.11;72.50;98261.13;105364;1254;96689;-77
2024/02/26 02:02:52;;;;;;;12.40;7.20;;;;;;;9.10;72.37;98262.77;105774;1254;97867;-80
2024/02/26 02:05:21;;;;;;;12.30;7.40;;;;;;;9.08;72.32;98259.92;105663;1257;109400;-78
2024/02/26 02:07:49;;;;;;;11.50;7.60;;;;;;;9.07;72.42;98265.45;105707;1257;96669;-79
2024/02/26 02:10:25;;;;;;;10.90;7.40;;;;;;;9.06;72.50;98268.55;105724;1267;107577;-76
2024/02/26 02:12:53;;;;;;;13.40;8.30;;;;;;;9.05;72.45;98271.11;104996;1257;96602;-79
2024/02/26 02:15:21;;;;;;;12.50;7.50;;;;;;;9.04;72.31;98272.94;105874;1256;96581;-76
2024/02/26 02:17:50;;;;;;;11.00;8.00;;;;;;;9.02;72.30;98270.26;105886;1256;110632;-80
2024/02/26 02:20:18;;;;;;;13.30;8.10;;;;;;;9.01;72.62;98272.48;105239;1264;97708;-79
2024/02/26 02:22:47;;;;;;;14.10;8.00;;;;;;;9.02;72.66;98268.16;105216;1257;107728;-74
2024/02/26 02:25:15;;;;;;;13.20;7.70;;;;;;;9.02;72.44;98262.55;105198;1264;97839;-80
2024/02/26 02:27:43;;;;;;;9.40;7.10;;;;;;;9.02;72.66;98259.36;104997;1251;96569;-77
2024/02/26 02:30:11;;;;;;;10.70;6.80;;;;;;;9.02;72.73;98255.48;105095;1256;109930;-80
2024/02/26 02:32:41;;;;;;;10.50;7.00;;;;;;;9.02;72.90;98248.17;105767;1256;96610;-78
2024/02/26 02:35:09;;;;;;;9.90;6.40;;;;;;;9.02;72.75;98241.47;104922;1257;107630;-78
2024/02/26 02:37:38;;;;;;;9.10;5.70;;;;;;;9.01;72.61;98238.39;105486;1256;96616;-77
2024/02/26 02:40:06;;;;;;;10.20;6.60;;;;;;;9.00;72.91;98243.03;105208;1255;96587;-78
2024/02/26 02:42:34;;;;;;;11.70;6.80;;;;;;;9.00;72.80;98243.05;105094;1256;109985;-77
2024/02/26 02:45:02;;;;;;;10.60;7.10;;;;;;;9.00;72.84;98242.72;105634;1256;96714;-78
2024/02/26 02:47:30;;;;;;;10.10;6.60;;;;;;;8.99;72.83;98242.45;105067;1265;108356;-78
2024/02/26 02:49:58;;;;;;;10.40;6.60;;;;;;;8.99;72.97;98243.68;105017;1256;96682;-79
2024/02/26 02:52:26;;;;;;;10.00;6.60;;;;;;;8.98;72.96;98240.19;105153;1257;97904;-79
2024/02/26 02:54:54;;;;;;;9.40;6.60;;;;;;;8.99;73.11;98237.46;105145;1264;110412;-78
2024/02/26 02:57:22;;;;;;;8.30;6.30;;;;;;;9.00;73.06;98242.70;104998;1257;96596;-78
2024/02/26 02:59:51;;;;;;;8.80;6.50;;;;;;;9.00;73.16;98244.14;105051;1257;107690;-77
2024/02/26 03:02:18;;;;;;;9.60;6.30;;;;;;;9.01;73.28;98251.29;105992;1250;97725;-79
2024/02/26 03:04:46;;;;;;;9.10;6.10;;;;;;;9.02;73.28;98252.23;105774;1254;96670;-78
2024/02/26 03:07:14;;;;;;;6.70;5.50;;;;;;;9.02;73.41;98253.50;105818;1251;110113;-78
2024/02/26 03:09:43;;;;;;;9.40;6.40;;;;;;;9.03;73.45;98262.96;105232;1262;97415;-79
2024/02/26 03:12:11;;;;;;;8.60;5.50;;;;;;;9.04;73.31;98264.16;105340;1262;107903;-79
2024/02/26 03:14:39;;;;;;;10.80;6.70;;;;;;;9.04;73.48;98265.34;105272;1264;97073;-80
2024/02/26 03:17:07;;;;;;;9.40;6.30;;;;;;;9.05;73.48;98265.15;105788;1254;96602;-79
2024/02/26 03:19:35;;;;;;;8.80;6.30;;;;;;;9.04;73.42;98260.90;105766;1254;109814;-79
2024/02/26 03:22:03;;;;;;;11.00;6.60;;;;;;;9.05;73.36;98270.38;105542;1265;96688;-79
2024/02/26 03:24:31;;;;;;;8.20;5.90;;;;;;;9.06;73.38;98267.70;105910;1253;107584;-77
2024/02/26 03:26:58;;;;;;;8.60;5.80;;;;;;;9.05;73.33;98268.48;105219;1260;96593;-79
2024/02/26 03:29:27;;;;;;;10.00;6.30;;;;;;;9.05;73.53;98271.48;105164;1257;96692;-78
2024/02/26 03:31:55;;;;;;;8.40;5.80;;;;;;;9.07;73.57;98267.27;105321;1253;110439;-78
2024/02/26 03:34:23;;;;;;;7.10;5.50;;;;;;;9.06;73.48;98268.02;105471;1254;96590;-79
2024/02/26 03:36:51;;;;;;;8.50;5.00;;;;;;;9.06;73.53;98272.65;105551;1257;108266;-80
2024/02/26 03:39:19;;;;;;;9.00;5.10;;;;;;;9.06;73.65;98275.66;105813;1264;97403;-79
2024/02/26 03:41:47;;;;;;;6.60;4.70;;;;;;;9.07;73.54;98276.13;105651;1262;96587;-79
2024/02/26 03:44:14;;;;;;;6.40;4.60;;;;;;;9.07;73.59;98277.34;106065;1253;109488;-78
2024/02/26 03:46:42;;;;;;;6.70;4.60;;;;;;;9.08;73.56;98276.52;105312;1258;96648;-80
2024/02/26 03:49:10;;;;;;;5.90;5.00;;;;;;;9.09;73.51;98272.38;105591;1253;105925;-79
2024/02/26 03:51:38;;;;;;;6.20;4.50;;;;;;;9.08;73.53;98271.73;105901;1254;97543;-79
2024/02/26 03:54:06;;;;;;;5.50;4.20;;;;;;;9.07;73.68;98268.98;105885;1262;97804;-79
2024/02/26 03:56:34;;;;;;;5.40;4.10;;;;;;;9.08;73.66;98263.61;105840;1253;109851;-79
2024/02/26 03:59:02;;;;;;;6.50;4.80;;;;;;;9.07;73.69;98262.41;105301;1251;96568;-78
2024/02/26 04:01:30;;;;;;;7.20;4.60;;;;;;;9.08;73.96;98264.50;106112;1256;108178;-79
2024/02/26 04:03:58;;;;;;;8.00;4.30;;;;;;;9.08;73.97;98261.65;105999;1263;96657;-80
2024/02/26 04:06:26;;;;;;;6.60;4.40;;;;;;;9.09;73.79;98266.71;105514;1255;96588;-79
2024/02/26 04:08:54;;;;;;;6.90;4.60;;;;;;;9.08;73.81;98259.86;105978;1253;109481;-81
2024/02/26 04:11:22;;;;;;;6.00;4.40;;;;;;;9.08;73.91;98251.73;105734;1255;96596;-79
2024/02/26 04:13:52;;;;;;;5.60;4.30;;;;;;;9.08;73.81;98249.36;105871;1264;107683;-76
2024/02/26 04:16:20;;;;;;;7.00;4.40;;;;;;;9.08;74.08;98244.19;105690;1251;96635;-80
2024/02/26 04:18:48;;;;;;;5.50;4.00;;;;;;;9.08;73.99;98241.13;105805;1254;96579;-78
2024/02/26 04:21:16;;;;;;;6.00;4.30;;;;;;;9.08;73.94;98242.23;105328;1257;107959;-76
2024/02/26 04:23:44;;;;;;;7.80;4.80;;;;;;;9.08;73.93;98242.23;105206;1251;97030;-78
2024/02/26 04:26:12;;;;;;;6.50;4.10;;;;;;;9.07;73.88;98243.34;105123;1257;108296;-77
2024/02/26 04:28:40;;;;;;;6.30;4.50;;;;;;;9.06;74.04;98243.25;105329;1253;96690;-81
2024/02/26 04:31:08;;;;;;;7.00;4.00;;;;;;;9.07;74.01;98245.33;105553;1251;96529;-80
2024/02/26 04:33:36;;;;;;;6.60;3.90;;;;;;;9.07;74.00;98246.39;105325;1257;109874;-82
2024/02/26 04:36:04;;;;;;;7.70;4.60;;;;;;;9.08;74.07;98247.38;105294;1254;97542;-80
2024/02/26 04:38:32;;;;;;;5.50;4.10;;;;;;;9.08;73.95;98245.09;105846;1254;107579;-81
2024/02/26 04:41:00;;;;;;;9.80;4.20;;;;;;;9.08;74.10;98239.52;105222;1262;96587;-80
2024/02/26 04:43:28;;;;;;;5.30;4.20;;;;;;;9.08;74.08;98231.60;105983;1253;96668;-77
2024/02/26 04:45:56;;;;;;;8.80;4.00;;;;;;;9.09;74.23;98228.20;106044;1251;109914;-77
2024/02/26 04:48:24;;;;;;;6.30;4.40;;;;;;;9.10;74.05;98232.36;104895;1267;96583;-78
2024/02/26 04:50:52;;;;;;;6.80;4.10;;;;;;;9.09;74.13;98235.94;105982;1253;107559;-75
2024/02/26 04:53:20;;;;;;;5.60;3.90;;;;;;;9.09;74.26;98235.05;105945;1262;96593;-75
2024/02/26 04:55:48;;;;;;;5.10;3.80;;;;;;;9.10;74.32;98239.08;105792;1253;96501;-76
2024/02/26 04:58:16;;;;;;;4.70;3.80;;;;;;;9.12;74.19;98239.85;105656;1254;109880;-74
2024/02/26 05:00:44;;;;;;;5.50;4.20;;;;;;;9.13;74.30;98241.17;105671;1254;96581;-77
2024/02/26 05:03:13;;;;;;;5.60;4.00;;;;;;;9.14;74.32;98241.94;106047;1256;107608;-77
2024/02/26 05:05:43;;;;;;;6.60;3.70;;;;;;;9.15;74.30;98242.07;106020;1254;96603;-80
2024/02/26 05:08:11;;;;;;;5.90;4.00;;;;;;;9.15;74.50;98238.83;105948;1254;96596;-77
2024/02/26 05:10:40;;;;;;;7.00;3.80;;;;;;;9.17;74.50;98229.54;105885;1254;109632;-80
2024/02/26 05:13:09;;;;;;;6.00;3.90;;;;;;;9.16;74.33;98227.77;106090;1252;96583;-78
2024/02/26 05:15:36;;;;;;;5.70;3.90;;;;;;;9.17;74.55;98233.92;105874;1255;107295;-72
2024/02/26 05:18:05;;;;;;;6.40;3.70;;;;;;;9.19;74.39;98236.56;105960;1253;97230;-73
2024/02/26 05:20:35;;;;;;;8.60;4.00;;;;;;;9.23;74.58;98237.67;105791;1264;97403;-72
2024/02/26 05:23:03;;;;;;;5.90;3.40;;;;;;;9.25;74.51;98232.94;105993;1262;109984;-73
2024/02/26 05:25:31;;;;;;;6.20;3.60;;;;;;;9.27;74.56;98233.47;109085;1251;95568;-72
2024/02/26 05:27:59;;;;;;;5.10;3.70;;;;;;;9.30;74.66;98231.15;109088;1251;107605;-71
2024/02/26 05:30:28;;;;;;;6.60;3.80;;;;;;;9.31;74.66;98234.09;109081;1251;94532;-73
2024/02/26 05:32:56;;;;;;;5.80;3.30;;;;;;;9.32;74.54;98235.55;109120;1249;94418;-73
2024/02/26 05:35:25;;;;;;;6.90;3.70;;;;;;;9.34;74.65;98240.02;106813;1251;108771;-72
2024/02/26 05:37:53;;;;;;;4.90;3.40;;;;;;;9.34;74.68;98243.67;109065;1250;94398;-72
2024/02/26 05:40:21;;;;;;;4.50;3.40;;;;;;;9.36;74.64;98248.88;109011;1251;107671;-73
2024/02/26 05:42:49;;;;;;;4.00;2.70;;;;;;;9.37;74.60;98252.45;108966;1251;96669;-72
2024/02/26 05:45:17;;;;;;;5.00;3.50;;;;;;;9.38;74.67;98256.23;105956;1260;96558;-73
2024/02/26 05:47:45;;;;;;;3.70;2.90;;;;;;;9.41;74.54;98257.48;109061;1251;108953;-73
2024/02/26 05:50:15;;;;;;;5.00;3.60;;;;;;;9.43;74.66;98257.52;108119;1251;98001;-73
2024/02/26 05:52:43;;;;;;;4.50;3.30;;;;;;;9.45;74.75;98260.88;105879;1263;107606;-71
2024/02/26 05:55:11;;;;;;;3.80;2.60;;;;;;;9.47;74.73;98264.81;105969;1253;96580;-71
2024/02/26 05:57:39;;;;;;;6.20;2.90;;;;;;;9.47;74.75;98264.45;105873;1261;96592;-70
2024/02/26 06:00:07;;;;;;;5.60;3.30;;;;;;;9.46;74.77;98267.14;106024;1253;109357;-71
2024/02/26 06:02:37;;;;;;;4.90;3.40;;;;;;;9.46;74.87;98268.77;105971;1251;97402;-72
2024/02/26 06:05:07;;;;;;;4.60;2.90;;;;;;;9.47;74.85;98268.54;105944;1261;107792;-71
2024/02/26 06:07:35;;;;;;;4.40;3.00;;;;;;;9.47;74.86;98267.95;107677;1250;97937;-69
2024/02/26 06:10:04;;;;;;;4.40;2.90;;;;;;;9.48;74.84;98268.74;107693;1253;96581;-70
2024/02/26 06:12:35;;;;;;;5.10;3.00;;;;;;;9.48;74.86;98271.23;106073;1262;109098;-70
2024/02/26 06:15:04;;;;;;;6.80;3.00;;;;;;;9.48;74.92;98268.27;106186;1253;96520;-72
2024/02/26 06:17:32;;;;;;;4.40;2.70;;;;;;;9.48;74.99;98276.52;106013;1255;106743;-71
2024/02/26 06:20:01;;;;;;;4.50;2.70;;;;;;;9.50;74.92;98280.48;106097;1254;96574;-71
2024/02/26 06:22:29;;;;;;;4.50;3.00;;;;;;;9.51;74.89;98277.00;105950;1249;96584;-71
2024/02/26 06:24:58;;;;;;;4.80;3.00;;;;;;;9.52;74.89;98282.79;106007;1254;109696;-71
2024/02/26 06:27:25;;;;;;;4.10;2.90;;;;;;;9.52;74.90;98288.05;105950;1253;96560;-72
2024/02/26 06:29:54;;;;;;;4.10;2.80;;;;;;;9.52;75.03;98295.31;105854;1254;105779;-72
2024/02/26 06:32:26;;;;;;;4.40;3.20;;;;;;;9.53;74.95;98303.42;105654;1254;97581;-71
2024/02/26 06:34:55;;;;;;;4.80;3.10;;;;;;;9.55;75.16;98311.08;105857;1254;97888;-70
2024/02/26 06:37:23;;;;;;;3.20;2.50;;;;;;;9.57;75.17;98314.98;105911;1253;109628;-71
2024/02/26 06:39:52;;;;;;;5.40;3.30;;;;;;;9.59;75.22;98314.30;105990;1253;96609;-71
2024/02/26 06:42:20;;;;;;;4.80;3.00;;;;;;;9.61;75.34;98315.51;105962;1252;107678;-71
2024/02/26 06:44:48;;;;;;;5.00;3.00;;;;;;;9.64;75.29;98315.45;105422;1254;97417;-71
2024/02/26 06:47:16;;;;;;;4.50;3.00;;;;;;;9.66;75.35;98318.09;105661;1254;97864;-73
2024/02/26 06:49:44;;;;;;;4.60;3.10;;;;;;;9.68;75.32;98315.02;105535;1272;110540;-71
2024/02/26 06:52:12;;;;;;;4.50;2.90;;;;;;;9.71;75.28;98316.17;105914;1251;97266;-71
2024/02/26 06:54:40;;;;;;;5.40;3.80;;;;;;;9.73;75.32;98317.77;106204;1253;107556;-74
2024/02/26 06:57:09;;;;;;;4.80;3.40;;;;;;;9.76;75.44;98315.59;105912;1253;96603;-72
2024/02/26 06:59:37;;;;;;;5.90;3.50;;;;;;;9.78;75.33;98317.31;105963;1252;96584;-70
2024/02/26 07:02:05;;;;;;;5.50;3.70;;;;;;;9.81;75.35;98319.41;105900;1253;110585;-70
2024/02/26 07:04:33;;;;;;;6.10;3.70;;;;;;;9.84;75.39;98318.61;105661;1254;96586;-72
2024/02/26 07:07:02;;;;;;;5.70;4.20;;;;;;;9.87;75.31;98321.02;105869;1263;107709;-72
2024/02/26 07:09:30;;;;;;;4.70;3.70;;;;;;;9.89;75.46;98320.00;105882;1251;97524;-72
2024/02/26 07:11:57;;;;;;;6.00;3.50;;;;;;;9.92;75.43;98319.08;105701;1255;96647;-71
2024/02/26 07:14:28;;;;;;;5.60;3.60;;;;;;;9.93;75.48;98321.75;105860;1255;109393;-70
2024/02/26 07:16:56;;;;;;;6.00;4.00;;;;;;;9.95;75.33;98318.47;105702;1254;96574;-72
2024/02/26 07:19:24;;;;;;;5.90;4.10;;;;;;;9.94;75.33;98318.88;105795;1253;107692;-71
2024/02/26 07:21:52;;;;;;;5.20;3.70;;;;;;;9.96;75.43;98324.07;105855;1254;96580;-72
2024/02/26 07:24:20;;;;;;;6.30;4.00;;;;;;;9.98;75.48;98325.95;105663;1254;96592;-71
2024/02/26 07:26:48;;;;;;;5.80;4.20;;;;;;;10.02;75.46;98327.61;105639;1251;109394;-70
2024/02/26 07:29:16;;;;;;;7.50;5.20;;;;;;;10.04;75.50;98319.98;105525;1262;96980;-72
2024/02/26 07:31:43;;;;;;;6.80;4.50;;;;;;;10.07;75.63;98324.89;105611;1253;107186;-71
2024/02/26 07:34:11;;;;;;;7.20;4.90;;;;;;;10.10;75.46;98323.95;105937;1254;96540;-71
2024/02/26 07:36:40;;;;;;;6.70;4.60;;;;;;;10.14;75.65;98326.10;105817;1253;97898;-72
2024/02/26 07:39:07;;;;;;;7.10;4.40;;;;;;;10.18;75.62;98323.98;105807;1254;109424;-69
2024/02/26 07:41:35;;;;;;;7.50;4.70;;;;;;;10.21;75.66;98326.20;105755;1251;98005;-71
2024/02/26 07:44:03;;;;;;;11.80;6.00;;;;;;;10.26;75.61;98325.68;105728;1263;107541;-70
2024/02/26 07:46:31;;;;;;;12.50;7.50;;;;;;;10.30;75.69;98324.30;105805;1255;97999;-70
2024/02/26 07:48:59;;;;;;;15.20;9.80;;;;;;;10.34;75.68;98326.75;105695;1254;96653;-70
2024/02/26 07:51:27;;;;;;;15.80;10.40;;;;;;;10.39;75.76;98334.13;105781;1251;109453;-73
2024/02/26 07:53:55;;;;;;;13.00;8.90;;;;;;;10.45;75.83;98332.78;105867;1251;96707;-72
2024/02/26 07:56:23;;;;;;;9.50;6.90;;;;;;;10.50;75.86;98330.42;105761;1251;108441;-71
2024/02/26 07:58:50;;;;;;;10.60;6.90;;;;;;;10.54;75.84;98336.81;105687;1254;97896;-71
2024/02/26 08:01:18;;;;;;;10.70;7.40;;;;;;;10.58;75.76;98332.25;106054;1253;97501;-72
2024/02/26 08:03:46;;;;;;;11.90;7.30;;;;;;;10.61;75.79;98332.70;106114;1253;109939;-72
2024/02/26 08:06:16;;;;;;;10.70;7.30;;;;;;;10.64;75.81;98327.54;105819;1255;97193;-70
2024/02/26 08:08:44;;;;;;;12.80;7.30;;;;;;;10.67;75.71;98325.67;105817;1250;107601;-72
2024/02/26 08:11:15;;;;;;;10.80;7.10;;;;;;;10.70;75.81;98322.52;105775;1253;96610;-73
2024/02/26 08:13:43;;;;;;;10.40;6.50;;;;;;;10.73;75.89;98316.46;105706;1255;96704;-72
2024/02/26 08:16:11;;;;;;;9.70;6.30;;;;;;;10.75;75.79;98315.72;106177;1251;109731;-71
2024/02/26 08:18:40;;;;;;;9.60;6.40;;;;;;;10.79;75.88;98315.10;105679;1254;96602;-71
2024/02/26 08:21:08;;;;;;;11.70;6.70;;;;;;;10.83;75.87;98315.73;105735;1254;107643;-75
2024/02/26 08:23:37;;;;;;;12.70;8.00;;;;;;;10.88;75.87;98313.91;105889;1251;97896;-71
2024/02/26 08:26:07;;;;;;;12.50;7.10;;;;;;;10.91;75.81;98310.64;105813;1253;97289;-72
2024/02/26 08:28:39;;;;;;;14.20;8.10;;;;;;;10.94;75.88;98317.49;105735;1253;110386;-72
2024/02/26 08:31:07;;;;;;;13.10;7.90;;;;;;;10.97;75.88;98316.31;105638;1262;96685;-70
2024/02/26 08:33:35;;;;;;;12.90;8.00;;;;;;;11.00;75.90;98321.09;105859;1254;108270;-73
2024/02/26 08:36:08;;;;;;;11.80;7.40;;;;;;;11.04;75.84;98325.02;105818;1254;96677;-71
2024/02/26 08:38:36;;;;;;;11.30;7.50;;;;;;;11.08;75.90;98329.41;105905;1252;96581;-72
2024/02/26 08:41:04;;;;;;;11.70;7.30;;;;;;;11.12;75.88;98337.22;105877;1251;109583;-70
2024/02/26 08:43:32;;;;;;;14.70;6.90;;;;;;;11.17;75.88;98341.45;105826;1251;97912;-70
2024/02/26 08:46:00;;;;;;;13.80;7.10;;;;;;;11.22;75.80;98341.73;105958;1254;107621;-71
2024/02/26 08:48:28;;;;;;;10.70;6.70;;;;;;;11.27;75.89;98342.17;105867;1253;96679;-71
2024/02/26 08:50:56;;;;;;;14.40;6.80;;;;;;;11.32;75.88;98334.84;106062;1252;96683;-71
2024/02/26 08:53:26;;;;;;;11.40;7.50;;;;;;;11.37;75.83;98337.09;106011;1253;109896;-70
2024/02/26 08:56:08;;;;;;;9.80;6.90;;;;;;;11.41;75.87;98336.20;105835;1262;97563;-73
2024/02/26 08:58:36;;;;;;;11.50;7.00;;;;;;;11.44;75.89;98333.58;105968;1251;107316;-71
2024/02/26 09:01:03;;;;;;;11.50;7.00;;;;;;;11.49;75.88;98338.36;105948;1250;96570;-72
2024/02/26 09:03:31;;;;;;;14.00;6.90;;;;;;;11.52;75.91;98340.00;105738;1262;96603;-70
2024/02/26 09:06:00;;;;;;;10.00;6.70;;;;;;;11.56;75.83;98339.31;105818;1254;111169;-70
2024/02/26 09:08:28;;;;;;;9.40;6.50;;;;;;;11.60;75.87;98339.42;105682;1254;96651;-70
2024/02/26 09:10:55;;;;;;;10.90;6.80;;;;;;;11.64;75.86;98339.99;105831;1251;107689;-70
2024/02/26 09:13:23;;;;;;;9.00;6.70;;;;;;;11.68;75.93;98339.84;105918;1254;96517;-71
2024/02/26 09:15:51;;;;;;;10.20;6.60;;;;;;;11.72;75.90;98336.29;105660;1251;96692;-69
2024/02/26 09:18:19;;;;;;;10.90;6.60;;;;;;;11.76;75.91;98336.11;105835;1253;109469;-70
2024/02/26 09:20:47;;;;;;;11.40;6.10;;;;;;;11.81;75.89;98332.86;106025;1253;97505;-70
2024/02/26 09:23:15;;;;;;;9.20;7.10;;;;;;;11.88;75.93;98334.01;105961;1254;107168;-70
2024/02/26 09:25:42;;;;;;;9.70;6.30;;;;;;;11.93;75.85;98333.48;105703;1256;97073;-71
2024/02/26 09:28:10;;;;;;;9.60;6.30;;;;;;;11.99;75.90;98334.62;105580;1254;96588;-70
2024/02/26 09:30:38;;;;;;;12.60;6.70;;;;;;;12.04;75.89;98330.66;105884;1251;110039;-71
2024/02/26 09:33:06;;;;;;;11.20;6.80;;;;;;;12.08;75.85;98323.55;105992;1253;97440;-71
2024/02/26 09:35:34;;;;;;;10.40;7.30;;;;;;;12.12;75.88;98322.69;106076;1253;107611;-73
2024/02/26 09:38:02;;;;;;;10.10;6.70;;;;;;;12.19;75.89;98314.00;105903;1254;96571;-71
2024/02/26 09:40:31;;;;;;;11.40;7.50;;;;;;;12.27;75.96;98316.14;105896;1251;96532;-72
2024/02/26 09:43:03;;;;;;;10.60;7.10;;;;;;;12.35;75.94;98313.44;105880;1251;109857;-71
2024/02/26 09:45:33;;;;;;;9.70;6.30;;;;;;;12.44;76.01;98311.02;105710;1271;96543;-72
2024/02/26 09:48:03;;;;;;;12.50;6.90;;;;;;;12.54;76.07;98313.78;105886;1251;108333;-71
2024/02/26 09:50:32;;;;;;;9.50;5.80;;;;;;;12.65;75.99;98316.71;105896;1251;96662;-70
2024/02/26 09:53:02;;;;;;;8.30;6.00;;;;;;;12.74;75.89;98312.70;105985;1251;96606;-73
2024/02/26 09:55:30;;;;;;;9.70;6.40;;;;;;;12.78;75.82;98313.70;105844;1253;109509;-71
2024/02/26 09:57:59;;;;;;;9.40;6.60;;;;;;;12.83;75.81;98309.89;105775;1252;97919;-70
2024/02/26 10:00:33;;;;;;;11.00;6.20;;;;;;;12.88;75.68;98310.83;105908;1249;106607;-71
2024/02/26 10:03:04;;;;;;;9.60;6.50;;;;;;;12.92;75.57;98314.56;105756;1254;96576;-71
2024/02/26 10:05:34;;;;;;;9.50;5.80;;;;;;;12.95;75.60;98321.95;105663;1253;96667;-71
2024/02/26 10:08:04;;;;;;;8.50;6.00;;;;;;;12.98;75.58;98320.66;105919;1253;109624;-71
2024/02/26 10:10:32;;;;;;;10.20;6.00;;;;;;;13.00;75.60;98316.68;105835;1260;96590;-70
2024/02/26 10:13:01;;;;;;;10.70;5.80;;;;;;;13.03;75.57;98319.82;105777;1254;107596;-71
2024/02/26 10:15:29;;;;;;;10.80;5.90;;;;;;;13.04;75.39;98324.51;105892;1251;97405;-70
2024/02/26 10:17:57;;;;;;;11.80;5.90;;;;;;;13.05;75.55;98323.08;106018;1253;97918;-71
2024/02/26 10:20:28;;;;;;;7.80;5.10;;;;;;;13.06;75.32;98326.96;105744;1254;109894;-70
2024/02/26 10:22:56;;;;;;;9.90;6.00;;;;;;;13.07;75.36;98321.88;105828;1253;97521;-71
2024/02/26 10:25:24;;;;;;;7.90;5.20;;;;;;;13.07;75.23;98318.48;105773;1254;107663;-71
2024/02/26 10:27:52;;;;;;;10.00;5.90;;;;;;;13.07;75.07;98316.30;105824;1254;97557;-73
2024/02/26 10:30:22;;;;;;;7.70;4.60;;;;;;;13.08;75.07;98315.88;105857;1254;96929;-74
2024/02/26 10:32:51;;;;;;;7.00;4.60;;;;;;;13.12;75.13;98319.11;105685;1257;109352;-74
2024/02/26 10:35:23;;;;;;;8.40;4.70;;;;;;;13.16;75.09;98316.73;105958;1250;97800;-72
2024/02/26 10:37:51;;;;;;;6.90;4.60;;;;;;;13.21;75.01;98310.19;105698;1251;107602;-71
2024/02/26 10:40:19;;;;;;;8.80;5.30;;;;;;;13.26;74.87;98301.36;105924;1252;96802;-70
2024/02/26 10:42:46;;;;;;;7.40;4.20;;;;;;;13.33;74.82;98311.98;105748;1253;96595;-71
2024/02/26 10:45:14;;;;;;;6.60;4.90;;;;;;;13.37;74.74;98314.73;106003;1253;109492;-73
2024/02/26 10:47:43;;;;;;;8.00;5.50;;;;;;;13.40;74.71;98316.95;105795;1256;96583;-71
2024/02/26 10:50:13;;;;;;;7.60;4.90;;;;;;;13.44;74.57;98321.84;105918;1268;107198;-71
2024/02/26 10:52:42;;;;;;;7.10;4.60;;;;;;;13.45;74.59;98324.68;105912;1248;96580;-71
2024/02/26 10:55:20;;;;;;;8.50;4.90;;;;;;;13.47;74.50;98326.98;105807;1253;97562;-71
2024/02/26 10:57:52;;;;;;;7.70;4.60;;;;;;;13.47;74.30;98326.11;105739;1263;109856;-70
2024/02/26 11:03:37;;;;;;;12.80;5.80;;;;;;;13.51;74.20;98326.83;102259;1293;635713;-71
2024/02/26 11:06:06;;;;;;;8.20;4.80;;;;;;;13.48;74.13;98324.60;104806;1267;94589;-70
2024/02/26 11:08:35;;;;;;;6.70;4.80;;;;;;;13.51;74.06;98329.10;104661;1267;94367;-70
2024/02/26 11:11:04;;;;;;;6.50;4.80;;;;;;;13.54;74.02;98328.79;105257;1262;105739;-72
2024/02/26 11:13:37;;;;;;;6.50;5.10;;;;;;;13.58;74.02;98324.91;105277;1262;95466;-72
2024/02/26 11:16:09;;;;;;;7.20;5.10;;;;;;;13.60;73.94;98325.44;103830;1262;1653537;-71
2024/02/26 11:18:41;;;;;;;9.10;4.70;;;;;;;13.61;73.89;98329.04;105537;1256;94127;-71
2024/02/26 11:21:11;;;;;;;;;;;;;;;13.63;73.91;98323.70;105453;1251;94815;-72
2024/02/26 11:23:40;;;;;;;5.40;4.00;;;;;;;13.63;73.74;98315.66;105276;1256;107902;-71
2024/02/26 11:26:11;;;;;;;6.20;4.20;;;;;;;13.67;73.72;98318.50;105344;1257;95221;-72
2024/02/26 11:28:39;;;;;;;7.00;4.50;;;;;;;13.69;73.68;98316.66;105534;1257;107553;-69
2024/02/26 11:31:08;;;;;;;6.50;4.20;;;;;;;13.74;73.67;98313.93;105367;1257;95330;-70
2024/02/26 11:33:36;;;;;;;7.10;4.30;;;;;;;13.78;73.66;98315.99;105506;1255;95241;-70